createdAt,value
2022-09-07T00:02:22.478Z,8.63
2022-09-07T00:04:49.323Z,6.77
2022-09-07T00:07:16.066Z,6.40
2022-09-07T00:09:43.054Z,5.80
2022-09-07T00:12:10.069Z,5.20
2022-09-07T00:14:36.823Z,5.77
2022-09-07T00:17:03.690Z,7.37
2022-09-07T00:19:30.534Z,6.23
2022-09-07T00:21:57.503Z,4.77
2022-09-07T00:24:24.550Z,6.90
2022-09-07T00:26:51.404Z,5.47
2022-09-07T00:29:18.253Z,4.80
2022-09-07T00:31:45.254Z,6.47
2022-09-07T00:34:12.293Z,5.57
2022-09-07T00:36:39.313Z,6.17
2022-09-07T00:39:06.385Z,6.77
2022-09-07T00:41:33.108Z,5.73
2022-09-07T00:44:38.181Z,6.87
2022-09-07T00:47:07.019Z,5.80
2022-09-07T00:49:34.000Z,6.43
2022-09-07T00:52:02.790Z,6.07
2022-09-07T00:54:51.239Z,6.50
2022-09-07T00:57:18.106Z,6.10
2022-09-07T00:59:48.348Z,6.80
2022-09-07T01:02:17.506Z,4.67
2022-09-07T01:04:47.429Z,6.60
2022-09-07T01:07:14.399Z,5.00
2022-09-07T01:09:42.279Z,6.27
2022-09-07T01:12:09.638Z,11.10
2022-09-07T01:14:40.609Z,5.57
2022-09-07T01:17:17.739Z,6.00
2022-09-07T01:19:45.941Z,6.03
2022-09-07T01:22:41.211Z,7.80
2022-09-07T01:25:11.349Z,8.30
2022-09-07T01:28:28.391Z,6.60
2022-09-07T01:30:58.211Z,13.07
2022-09-07T01:33:48.422Z,8.50
2022-09-07T01:36:20.342Z,13.33
2022-09-07T01:38:56.551Z,7.17
2022-09-07T01:41:30.449Z,8.63
2022-09-07T01:44:15.435Z,6.87
2022-09-07T01:46:47.696Z,7.97
2022-09-07T01:49:20.696Z,8.23
2022-09-07T01:51:51.016Z,7.80
2022-09-07T01:54:22.871Z,8.13
2022-09-07T01:56:50.498Z,8.83
2022-09-07T01:59:48.679Z,12.43
2022-09-07T02:02:19.264Z,12.30
2022-09-07T02:04:50.762Z,8.73
2022-09-07T02:07:31.105Z,11.03
2022-09-07T02:10:11.504Z,7.80
2022-09-07T02:12:48.267Z,8.70
2022-09-07T02:15:18.743Z,9.17
2022-09-07T02:17:49.427Z,7.67
2022-09-07T02:20:22.733Z,9.27
2022-09-07T02:22:57.667Z,9.90
2022-09-07T02:25:27.764Z,8.47
2022-09-07T02:27:59.196Z,8.87
2022-09-07T02:30:26.048Z,11.57
2022-09-07T02:32:52.813Z,8.63
2022-09-07T02:35:19.695Z,8.17
2022-09-07T02:37:47.403Z,9.23
2022-09-07T02:40:15.207Z,12.57
2022-09-07T02:42:43.017Z,15.53
2022-09-07T02:45:11.945Z,8.67
2022-09-07T02:47:48.674Z,11.33
2022-09-07T02:50:35.358Z,11.47
2022-09-07T02:53:45.626Z,10.30
2022-09-07T02:56:42.171Z,10.40
2022-09-07T02:59:39.838Z,9.30
2022-09-07T03:02:24.758Z,9.03
2022-09-07T03:05:01.711Z,9.53
2022-09-07T03:07:55.742Z,12.00
2022-09-07T03:10:23.206Z,11.97
2022-09-07T03:12:50.444Z,11.50
2022-09-07T03:15:21.190Z,10.80
2022-09-07T03:17:48.479Z,10.03
2022-09-07T03:20:17.424Z,10.30
2022-09-07T03:22:45.431Z,10.03
2022-09-07T03:25:13.047Z,10.17
2022-09-07T03:27:40.107Z,11.53
2022-09-07T03:30:08.617Z,10.67
2022-09-07T03:32:36.669Z,12.40
2022-09-07T03:35:05.497Z,10.30
2022-09-07T03:37:32.310Z,11.30
2022-09-07T03:39:59.336Z,9.53
2022-09-07T03:42:26.143Z,9.93
2022-09-07T03:44:53.036Z,9.87
2022-09-07T03:47:20.138Z,8.90
2022-09-07T03:49:47.005Z,9.07
2022-09-07T03:52:13.889Z,8.40
2022-09-07T03:54:40.650Z,9.90
2022-09-07T03:57:08.316Z,10.30
2022-09-07T03:59:35.465Z,11.63
2022-09-07T04:02:02.455Z,10.97
2022-09-07T04:04:29.459Z,12.90
2022-09-07T04:06:56.289Z,9.70
2022-09-07T04:09:23.150Z,9.67
2022-09-07T04:11:49.936Z,12.37
2022-09-07T04:14:16.759Z,13.73
2022-09-07T04:16:45.514Z,14.37
2022-09-07T04:19:12.620Z,14.57
2022-09-07T04:21:39.746Z,15.73
2022-09-07T04:24:06.938Z,16.47
2022-09-07T04:26:35.769Z,12.20
2022-09-07T04:29:03.431Z,13.73
2022-09-07T04:31:31.086Z,13.10
2022-09-07T04:33:57.975Z,12.67
2022-09-07T04:36:27.587Z,17.50
2022-09-07T04:38:58.078Z,15.40
2022-09-07T04:41:25.447Z,17.57
2022-09-07T04:43:57.329Z,20.67
2022-09-07T04:46:33.629Z,21.33
2022-09-07T04:49:03.749Z,19.50
2022-09-07T04:51:32.600Z,19.40
2022-09-07T04:54:01.361Z,18.53
2022-09-07T04:56:28.173Z,19.67
2022-09-07T04:58:55.678Z,18.60
2022-09-07T05:01:24.068Z,22.57
2022-09-07T05:03:51.017Z,18.27
2022-09-07T05:06:19.382Z,22.10
2022-09-07T05:08:48.016Z,19.47
2022-09-07T05:11:15.849Z,21.00
2022-09-07T05:13:43.065Z,23.30
2022-09-07T05:16:12.654Z,22.10
2022-09-07T05:18:39.984Z,19.87
2022-09-07T05:21:15.155Z,21.53
2022-09-07T05:23:42.763Z,17.80
2022-09-07T05:26:10.550Z,18.73
2022-09-07T05:28:38.231Z,19.13
2022-09-07T05:36:40.764Z,19.63
2022-09-07T05:39:08.578Z,21.03
2022-09-07T05:41:35.470Z,19.87
2022-09-07T05:46:51.767Z,21.33
2022-09-07T05:49:18.757Z,18.73
2022-09-07T05:51:45.592Z,19.60
2022-09-07T05:54:12.472Z,20.50
2022-09-07T05:56:39.448Z,22.90
2022-09-07T05:59:06.303Z,18.60
2022-09-07T06:01:35.357Z,21.70
2022-09-07T06:04:02.406Z,21.27
2022-09-07T06:06:29.280Z,21.57
2022-09-07T06:08:57.742Z,21.70
2022-09-07T06:11:25.799Z,19.90
2022-09-07T06:13:52.923Z,22.47
2022-09-07T06:16:20.165Z,23.10
2022-09-07T06:18:48.950Z,20.10
2022-09-07T06:21:18.413Z,18.83
2022-09-07T06:23:46.711Z,17.77
2022-09-07T06:26:14.190Z,20.00
2022-09-07T06:28:43.672Z,22.57
2022-09-07T06:31:11.497Z,22.17
2022-09-07T06:33:38.819Z,18.07
2022-09-07T06:36:08.059Z,18.20
2022-09-07T06:38:37.493Z,23.27
2022-09-07T06:43:57.086Z,15.90
2022-09-07T06:49:11.464Z,15.87
2022-09-07T06:51:38.691Z,14.87
2022-09-07T06:56:52.332Z,15.87
2022-09-07T06:59:19.202Z,15.67
2022-09-07T07:01:46.562Z,17.23
2022-09-07T07:04:14.314Z,16.70
2022-09-07T07:06:41.358Z,16.73
2022-09-07T07:09:08.893Z,20.40
2022-09-07T07:11:37.248Z,18.83
2022-09-07T07:14:04.474Z,20.57
2022-09-07T07:16:31.655Z,19.50
2022-09-07T07:18:58.450Z,16.47
2022-09-07T07:21:25.389Z,18.53
2022-09-07T07:23:53.213Z,16.20
2022-09-07T07:26:22.353Z,15.27
2022-09-07T07:29:06.303Z,15.27
2022-09-07T07:31:33.799Z,16.23
2022-09-07T07:34:00.718Z,15.40
2022-09-07T07:36:28.227Z,14.87
2022-09-07T07:44:13.854Z,13.70
2022-09-07T07:46:43.260Z,9.33
2022-09-07T07:49:10.142Z,9.23
2022-09-07T07:54:23.508Z,8.10
2022-09-07T07:56:50.688Z,7.90
2022-09-07T07:59:17.349Z,6.73
2022-09-07T08:01:44.168Z,6.17
2022-09-07T08:04:11.033Z,6.90
2022-09-07T08:06:42.565Z,7.00
2022-09-07T08:09:09.649Z,7.40
2022-09-07T08:11:36.338Z,7.10
2022-09-07T08:14:05.645Z,5.50
2022-09-07T08:16:34.235Z,7.63
2022-09-07T08:19:01.704Z,6.60
2022-09-07T08:21:28.440Z,6.20
2022-09-07T08:23:55.612Z,4.97
2022-09-07T08:26:26.158Z,6.47
2022-09-07T08:28:53.308Z,5.50
2022-09-07T08:31:20.173Z,8.27
2022-09-07T08:33:46.943Z,12.00
2022-09-07T08:36:19.360Z,5.67
2022-09-07T08:38:46.706Z,5.90
2022-09-07T08:41:47.156Z,5.93
2022-09-07T08:44:22.892Z,5.17
2022-09-07T08:46:56.639Z,5.30
2022-09-07T08:49:27.911Z,7.33
2022-09-07T08:52:03.696Z,3.97
2022-09-07T08:54:30.868Z,6.23
2022-09-07T08:59:56.004Z,7.47
2022-09-07T09:02:32.735Z,6.27
2022-09-07T09:05:17.811Z,5.80
2022-09-07T09:08:03.005Z,7.13
2022-09-07T09:10:56.177Z,6.27
2022-09-07T09:13:28.905Z,4.83
2022-09-07T09:16:05.026Z,7.27
2022-09-07T09:18:48.885Z,4.40
2022-09-07T09:21:18.802Z,6.83
2022-09-07T09:23:53.362Z,3.57
2022-09-07T09:29:21.567Z,4.60
2022-09-07T09:31:48.395Z,4.97
2022-09-07T09:34:21.274Z,5.87
2022-09-07T09:36:52.997Z,5.33
2022-09-07T09:39:36.801Z,4.30
2022-09-07T09:42:22.584Z,2.97
2022-09-07T09:44:50.294Z,2.97
2022-09-07T09:47:38.202Z,6.83
2022-09-07T09:50:07.032Z,6.13
2022-09-07T09:52:43.900Z,4.63
2022-09-07T09:55:34.468Z,6.67
2022-09-07T10:01:22.974Z,4.30
2022-09-07T10:03:59.140Z,2.97
2022-09-07T10:06:28.157Z,4.77
2022-09-07T10:08:57.964Z,6.87
2022-09-07T10:14:46.040Z,3.63
2022-09-07T10:17:30.783Z,2.17
2022-09-07T10:20:04.083Z,3.67
2022-09-07T10:22:33.942Z,3.83
2022-09-07T10:25:04.007Z,3.50
2022-09-07T10:27:35.461Z,2.10
2022-09-07T10:30:06.861Z,6.10
2022-09-07T10:33:15.256Z,3.97
2022-09-07T10:36:05.579Z,3.13
2022-09-07T10:38:37.097Z,5.13
2022-09-07T10:41:07.443Z,5.03
2022-09-07T10:43:44.920Z,3.67
2022-09-07T10:49:24.715Z,6.70
2022-09-07T10:52:00.494Z,5.83
2022-09-07T10:54:34.107Z,3.20
2022-09-07T10:57:08.516Z,4.60
2022-09-07T11:00:09.643Z,3.33
2022-09-07T11:06:06.661Z,2.80
2022-09-07T11:14:33.338Z,4.33
2022-09-07T11:17:03.235Z,5.30
2022-09-07T11:19:41.347Z,5.57
2022-09-07T11:22:18.983Z,2.13
2022-09-07T11:28:14.576Z,6.53
2022-09-07T11:30:49.903Z,2.40
2022-09-07T11:33:21.113Z,2.70
2022-09-07T11:35:52.630Z,4.13
2022-09-07T11:38:27.666Z,6.13
2022-09-07T11:41:15.326Z,3.33
2022-09-07T11:43:45.354Z,7.13
2022-09-07T11:46:21.784Z,4.80
2022-09-07T11:48:56.436Z,2.93
2022-09-07T11:51:41.924Z,3.67
2022-09-07T11:54:19.923Z,9.90
2022-09-07T11:56:52.259Z,1.83
2022-09-07T11:59:43.724Z,2.37
2022-09-07T12:02:10.528Z,2.63
2022-09-07T12:04:56.317Z,3.30
2022-09-07T12:07:58.768Z,14.47
2022-09-07T12:11:02.754Z,9.00
2022-09-07T12:13:51.166Z,4.20
2022-09-07T12:16:26.702Z,2.97
2022-09-07T12:19:18.942Z,2.80
2022-09-07T12:21:56.447Z,6.67
2022-09-07T12:24:33.644Z,4.40
2022-09-07T12:27:01.378Z,5.03
2022-09-07T12:29:29.530Z,5.33
2022-09-07T12:32:07.898Z,4.53
2022-09-07T12:34:55.661Z,5.77
2022-09-07T12:37:37.881Z,2.97
2022-09-07T12:40:33.349Z,4.23
2022-09-07T12:43:18.456Z,5.43
2022-09-07T12:45:50.978Z,4.53
2022-09-07T12:48:17.660Z,5.27
2022-09-07T12:51:02.637Z,4.37
2022-09-07T12:53:32.192Z,3.10
2022-09-07T12:56:18.435Z,7.47
2022-09-07T12:58:55.488Z,6.20
2022-09-07T13:02:02.758Z,7.03
2022-09-07T13:04:46.292Z,5.10
2022-09-07T13:07:35.355Z,8.20
2022-09-07T13:10:05.159Z,7.87
2022-09-07T13:15:56.315Z,7.00
2022-09-07T13:18:26.926Z,4.07
2022-09-07T13:21:09.276Z,6.60
2022-09-07T13:23:40.510Z,3.60
2022-09-07T13:26:09.859Z,5.03
2022-09-07T13:28:51.953Z,5.60
2022-09-07T13:32:03.281Z,7.43
2022-09-07T13:34:40.271Z,4.47
2022-09-07T13:37:15.756Z,4.43
2022-09-07T13:39:46.417Z,7.43
2022-09-07T13:42:18.922Z,7.97
2022-09-07T13:44:55.789Z,2.30
2022-09-07T13:47:33.766Z,2.97
2022-09-07T13:50:18.711Z,3.77
2022-09-07T13:53:11.956Z,4.83
2022-09-07T13:55:44.872Z,4.70
2022-09-07T13:58:18.031Z,6.37
2022-09-07T14:00:56.781Z,3.70
2022-09-07T14:03:24.972Z,4.50
2022-09-07T14:06:25.589Z,4.47
2022-09-07T14:08:55.704Z,4.47
2022-09-07T14:11:49.688Z,5.07
2022-09-07T14:14:21.097Z,4.00
2022-09-07T14:16:52.383Z,6.37
2022-09-07T14:19:21.925Z,4.10
2022-09-07T14:21:56.761Z,10.03
2022-09-07T14:24:34.033Z,4.67
2022-09-07T14:27:01.412Z,7.57
2022-09-07T14:29:31.577Z,4.93
2022-09-07T14:31:59.870Z,4.63
2022-09-07T14:34:30.368Z,7.80
2022-09-07T14:37:01.504Z,8.33
2022-09-07T14:39:29.845Z,6.30
2022-09-07T14:41:58.906Z,5.53
2022-09-07T14:44:34.720Z,3.83
2022-09-07T14:47:08.200Z,6.33
2022-09-07T14:49:35.111Z,9.80
2022-09-07T14:52:02.052Z,3.87
2022-09-07T14:54:31.903Z,4.87
2022-09-07T14:57:01.922Z,6.00
2022-09-07T14:59:41.683Z,5.33
2022-09-07T15:02:29.753Z,6.93
2022-09-07T15:05:14.527Z,5.73
2022-09-07T15:07:46.057Z,4.40
2022-09-07T15:10:25.766Z,6.30
2022-09-07T15:12:55.138Z,5.70
2022-09-07T15:15:27.496Z,5.67
2022-09-07T15:17:55.756Z,4.50
2022-09-07T15:20:45.606Z,8.73
2022-09-07T15:23:17.526Z,10.50
2022-09-07T15:25:50.489Z,3.20
2022-09-07T15:34:18.659Z,7.83
2022-09-07T15:36:50.940Z,10.60
2022-09-07T15:39:23.009Z,6.13
2022-09-07T15:41:51.395Z,6.57
2022-09-07T15:44:22.872Z,5.60
2022-09-07T15:49:40.116Z,5.13
2022-09-07T15:52:08.858Z,7.30
2022-09-07T15:54:39.553Z,4.47
2022-09-07T15:59:53.572Z,7.73
2022-09-07T16:05:07.830Z,6.87
2022-09-07T16:10:21.437Z,5.77
2022-09-07T16:13:10.421Z,6.47
2022-09-07T16:15:35.212Z,5.10
2022-09-07T16:18:02.448Z,6.83
2022-09-07T16:20:31.996Z,5.67
2022-09-07T16:23:15.935Z,5.37
2022-09-07T16:25:57.070Z,5.60
2022-09-07T16:28:26.488Z,6.87
2022-09-07T16:30:53.476Z,10.20
2022-09-07T16:33:20.462Z,4.27
2022-09-07T16:36:01.214Z,6.83
2022-09-07T16:38:47.602Z,8.33
2022-09-07T16:41:31.135Z,4.63
2022-09-07T16:43:58.433Z,9.33
2022-09-07T16:46:27.337Z,7.83
2022-09-07T16:48:54.564Z,5.40
2022-09-07T16:51:22.803Z,4.10
2022-09-07T16:53:54.484Z,7.47
2022-09-07T16:56:23.641Z,6.23
2022-09-07T16:58:52.414Z,5.93
2022-09-07T17:01:21.771Z,8.67
2022-09-07T17:03:51.987Z,6.27
2022-09-07T17:06:20.376Z,5.60
2022-09-07T17:08:48.167Z,7.63
2022-09-07T17:11:17.960Z,6.77
2022-09-07T17:13:45.586Z,6.57
2022-09-07T17:16:14.677Z,4.93
2022-09-07T17:21:33.516Z,8.40
2022-09-07T17:24:01.695Z,6.97
2022-09-07T17:26:30.602Z,8.13
2022-09-07T17:29:00.315Z,5.70
2022-09-07T17:34:22.388Z,7.47
2022-09-07T17:36:51.369Z,7.80
2022-09-07T17:39:19.556Z,8.17
2022-09-07T17:41:48.103Z,5.73
2022-09-07T17:44:15.559Z,7.23
2022-09-07T17:46:42.495Z,8.10
2022-09-07T17:49:12.408Z,3.53
2022-09-07T17:51:42.370Z,5.13
2022-09-07T17:54:12.779Z,7.43
2022-09-07T17:56:40.850Z,5.53
2022-09-07T18:01:55.763Z,5.10
2022-09-07T18:04:22.866Z,5.30
2022-09-07T18:06:50.102Z,8.30
2022-09-07T18:09:16.863Z,3.10
2022-09-07T18:11:45.486Z,3.37
2022-09-07T18:14:14.490Z,7.20
2022-09-07T18:16:42.091Z,7.90
2022-09-07T18:19:08.878Z,2.90
2022-09-07T18:21:37.049Z,8.23
2022-09-07T18:24:07.855Z,4.20
2022-09-07T18:26:38.405Z,10.07
2022-09-07T18:29:13.277Z,5.00
2022-09-07T18:31:53.660Z,7.47
2022-09-07T18:34:21.657Z,4.40
2022-09-07T18:36:48.741Z,5.57
2022-09-07T18:39:15.532Z,5.40
2022-09-07T18:41:45.159Z,6.80
2022-09-07T18:46:58.693Z,3.97
2022-09-07T18:49:25.424Z,8.67
2022-09-07T18:54:41.388Z,4.60
2022-09-07T18:57:08.493Z,7.23
2022-09-07T18:59:35.324Z,7.83
2022-09-07T19:02:04.887Z,6.10
2022-09-07T19:07:20.875Z,5.43
2022-09-07T19:09:48.425Z,4.20
2022-09-07T19:12:15.645Z,10.10
2022-09-07T19:14:42.504Z,6.50
2022-09-07T19:17:11.005Z,6.07
2022-09-07T19:19:38.757Z,8.13
2022-09-07T19:22:06.102Z,6.13
2022-09-07T19:24:33.323Z,6.57
2022-09-07T19:27:01.041Z,5.03
2022-09-07T19:29:28.507Z,5.00
2022-09-07T19:32:04.411Z,5.30
2022-09-07T19:34:36.334Z,6.50
2022-09-07T19:37:04.415Z,8.70
2022-09-07T19:39:31.351Z,9.43
2022-09-07T19:41:58.252Z,6.90
2022-09-07T19:44:24.937Z,7.53
2022-09-07T19:46:51.895Z,4.20
2022-09-07T19:49:19.387Z,6.77
2022-09-07T19:51:46.346Z,6.07
2022-09-07T19:54:13.815Z,4.70
2022-09-07T19:56:42.708Z,8.33
2022-09-07T19:59:09.929Z,8.27
2022-09-07T20:01:38.542Z,5.87
2022-09-07T20:04:07.979Z,9.90
2022-09-07T20:06:37.674Z,13.80
2022-09-07T20:09:04.597Z,5.73
2022-09-07T20:11:32.301Z,4.33
2022-09-07T20:13:58.942Z,6.27
2022-09-07T20:16:25.741Z,6.37
2022-09-07T20:18:52.465Z,6.90
2022-09-07T20:21:21.580Z,5.27
2022-09-07T20:23:48.721Z,4.10
2022-09-07T20:26:17.691Z,7.90
2022-09-07T20:28:44.474Z,5.90
2022-09-07T20:31:14.200Z,8.10
2022-09-07T20:33:45.967Z,5.33
2022-09-07T20:36:22.257Z,6.33
2022-09-07T20:38:52.143Z,7.07
2022-09-07T20:41:31.278Z,4.63
2022-09-07T20:44:00.303Z,6.47
2022-09-07T20:46:29.133Z,2.97
2022-09-07T20:49:02.443Z,7.07
2022-09-07T20:51:32.208Z,5.93
2022-09-07T20:54:01.856Z,5.17
2022-09-07T20:56:29.039Z,8.57
2022-09-07T20:58:59.931Z,5.13
2022-09-07T21:01:27.655Z,5.50
2022-09-07T21:03:57.268Z,6.57
2022-09-07T21:06:25.642Z,5.97
2022-09-07T21:08:52.441Z,6.47
2022-09-07T21:11:25.094Z,7.77
2022-09-07T21:13:57.220Z,4.50
2022-09-07T21:16:24.773Z,5.03
2022-09-07T21:18:54.563Z,6.43
2022-09-07T21:21:23.021Z,8.47
2022-09-07T21:23:55.111Z,5.60
2022-09-07T21:26:22.085Z,6.80
2022-09-07T21:29:00.214Z,7.13
2022-09-07T21:31:27.982Z,5.97
2022-09-07T21:33:59.229Z,4.70
2022-09-07T21:36:26.398Z,10.03
2022-09-07T21:38:54.360Z,5.70
2022-09-07T21:41:22.614Z,5.50
2022-09-07T21:43:49.344Z,5.70
2022-09-07T21:46:18.318Z,9.13
2022-09-07T21:48:46.619Z,8.57
2022-09-07T21:51:14.275Z,5.17
2022-09-07T21:53:41.904Z,5.70
2022-09-07T21:56:13.671Z,10.23
2022-09-07T21:58:41.223Z,6.73
2022-09-07T22:01:12.384Z,8.10
2022-09-07T22:03:40.587Z,5.97
2022-09-07T22:06:08.555Z,4.97
2022-09-07T22:08:36.238Z,4.17
2022-09-07T22:11:08.253Z,8.00
2022-09-07T22:13:35.345Z,4.37
2022-09-07T22:16:02.828Z,4.87
2022-09-07T22:18:30.357Z,4.60
2022-09-07T22:21:09.296Z,5.53
2022-09-07T22:23:38.769Z,4.93
2022-09-07T22:26:08.690Z,7.20
2022-09-07T22:28:36.546Z,7.27
2022-09-07T22:31:10.500Z,6.07
2022-09-07T22:33:40.352Z,8.20
2022-09-07T22:36:14.439Z,6.20
2022-09-07T22:38:42.746Z,6.50
2022-09-07T22:41:15.191Z,4.73
2022-09-07T22:43:44.670Z,9.23
2022-09-07T22:46:12.159Z,7.03
2022-09-07T22:48:40.954Z,5.03
2022-09-07T22:51:10.934Z,5.70
2022-09-07T22:53:40.276Z,4.67
2022-09-07T22:56:28.921Z,6.70
2022-09-07T22:59:02.170Z,5.60
2022-09-07T23:01:30.342Z,5.03
2022-09-07T23:03:58.134Z,7.40
2022-09-07T23:06:36.201Z,6.93
2022-09-07T23:09:15.665Z,11.40
2022-09-07T23:11:43.730Z,7.90
2022-09-07T23:14:19.319Z,6.23
2022-09-07T23:16:47.541Z,8.33
2022-09-07T23:19:15.633Z,6.90
2022-09-07T23:21:42.651Z,8.03
2022-09-07T23:24:14.565Z,5.30
2022-09-07T23:26:41.367Z,14.37
2022-09-07T23:29:11.242Z,4.50
2022-09-07T23:31:50.408Z,7.90
2022-09-07T23:34:17.490Z,4.87
2022-09-07T23:36:44.215Z,6.03
2022-09-07T23:39:13.164Z,5.27
2022-09-07T23:41:40.302Z,5.77
2022-09-07T23:44:07.043Z,4.87
2022-09-07T23:46:33.944Z,3.37
2022-09-07T23:49:00.686Z,2.87
2022-09-07T23:51:27.711Z,4.20
2022-09-07T23:53:54.470Z,4.57
2022-09-07T23:56:22.187Z,3.13
2022-09-07T23:58:48.877Z,3.50
